sensor_id;sensor_type;location;lat;lon;timestamp;P1;durP1;ratioP1;P2;durP2;ratioP2
15132;SDS011;7667;51.232;17.110;2023-08-24T00:00:54;4.63;;;3.57;;
15132;SDS011;7667;51.232;17.110;2023-08-24T00:03:22;3.97;;;3.57;;
15132;SDS011;7667;51.232;17.110;2023-08-24T00:05:49;5.03;;;3.70;;
15132;SDS011;7667;51.232;17.110;2023-08-24T00:08:18;6.03;;;3.17;;
15132;SDS011;7667;51.232;17.110;2023-08-24T00:10:46;6.47;;;3.77;;
15132;SDS011;7667;51.232;17.110;2023-08-24T00:13:14;4.90;;;3.27;;
15132;SDS011;7667;51.232;17.110;2023-08-24T00:15:42;4.53;;;3.00;;
15132;SDS011;7667;51.232;17.110;2023-08-24T00:18:09;11.50;;;7.20;;
15132;SDS011;7667;51.232;17.110;2023-08-24T00:20:37;8.77;;;5.50;;
15132;SDS011;7667;51.232;17.110;2023-08-24T00:23:05;13.73;;;7.70;;
15132;SDS011;7667;51.232;17.110;2023-08-24T00:25:32;8.70;;;6.47;;
15132;SDS011;7667;51.232;17.110;2023-08-24T00:28:00;7.47;;;5.37;;
15132;SDS011;7667;51.232;17.110;2023-08-24T00:30:27;10.43;;;6.13;;
15132;SDS011;7667;51.232;17.110;2023-08-24T00:32:55;5.10;;;4.00;;
15132;SDS011;7667;51.232;17.110;2023-08-24T00:35:23;7.53;;;5.43;;
15132;SDS011;7667;51.232;17.110;2023-08-24T00:37:50;7.73;;;5.80;;
15132;SDS011;7667;51.232;17.110;2023-08-24T00:40:18;4.03;;;3.30;;
15132;SDS011;7667;51.232;17.110;2023-08-24T00:42:46;5.20;;;3.50;;
15132;SDS011;7667;51.232;17.110;2023-08-24T00:45:14;6.00;;;4.67;;
15132;SDS011;7667;51.232;17.110;2023-08-24T00:47:45;5.67;;;4.80;;
15132;SDS011;7667;51.232;17.110;2023-08-24T00:50:16;7.40;;;4.20;;
15132;SDS011;7667;51.232;17.110;2023-08-24T00:52:44;4.47;;;3.10;;
15132;SDS011;7667;51.232;17.110;2023-08-24T00:55:15;4.73;;;3.90;;
15132;SDS011;7667;51.232;17.110;2023-08-24T00:57:44;6.77;;;3.10;;
15132;SDS011;7667;51.232;17.110;2023-08-24T01:00:12;4.87;;;3.53;;
15132;SDS011;7667;51.232;17.110;2023-08-24T01:02:40;8.63;;;4.80;;
15132;SDS011;7667;51.232;17.110;2023-08-24T01:05:08;10.73;;;4.40;;
15132;SDS011;7667;51.232;17.110;2023-08-24T01:07:38;5.57;;;3.53;;
15132;SDS011;7667;51.232;17.110;2023-08-24T01:10:07;7.07;;;2.90;;
15132;SDS011;7667;51.232;17.110;2023-08-24T01:18:25;4.63;;;3.30;;
15132;SDS011;7667;51.232;17.110;2023-08-24T01:20:53;4.87;;;3.40;;
15132;SDS011;7667;51.232;17.110;2023-08-24T01:27:00;4.30;;;2.87;;
15132;SDS011;7667;51.232;17.110;2023-08-24T01:29:28;3.53;;;3.10;;
15132;SDS011;7667;51.232;17.110;2023-08-24T01:31:56;4.43;;;2.90;;
15132;SDS011;7667;51.232;17.110;2023-08-24T01:34:23;3.87;;;2.80;;
15132;SDS011;7667;51.232;17.110;2023-08-24T01:36:51;3.10;;;2.80;;
15132;SDS011;7667;51.232;17.110;2023-08-24T01:39:29;3.00;;;2.67;;
15132;SDS011;7667;51.232;17.110;2023-08-24T01:42:04;5.47;;;2.93;;
15132;SDS011;7667;51.232;17.110;2023-08-24T01:44:35;5.50;;;3.30;;
15132;SDS011;7667;51.232;17.110;2023-08-24T01:47:06;7.50;;;4.40;;
15132;SDS011;7667;51.232;17.110;2023-08-24T01:49:38;5.60;;;4.90;;
15132;SDS011;7667;51.232;17.110;2023-08-24T01:52:08;5.90;;;3.80;;
15132;SDS011;7667;51.232;17.110;2023-08-24T01:54:37;5.23;;;3.70;;
15132;SDS011;7667;51.232;17.110;2023-08-24T01:57:04;4.13;;;2.73;;
15132;SDS011;7667;51.232;17.110;2023-08-24T01:59:33;7.63;;;3.10;;
15132;SDS011;7667;51.232;17.110;2023-08-24T02:02:01;6.57;;;3.00;;
15132;SDS011;7667;51.232;17.110;2023-08-24T02:04:29;6.07;;;3.40;;
15132;SDS011;7667;51.232;17.110;2023-08-24T02:06:57;4.37;;;3.10;;
15132;SDS011;7667;51.232;17.110;2023-08-24T02:09:24;6.83;;;3.63;;
15132;SDS011;7667;51.232;17.110;2023-08-24T02:11:52;4.70;;;3.40;;
15132;SDS011;7667;51.232;17.110;2023-08-24T02:14:19;4.57;;;3.50;;
15132;SDS011;7667;51.232;17.110;2023-08-24T02:16:47;6.50;;;4.20;;
15132;SDS011;7667;51.232;17.110;2023-08-24T02:19:14;5.63;;;3.90;;
15132;SDS011;7667;51.232;17.110;2023-08-24T02:21:42;4.30;;;3.40;;
15132;SDS011;7667;51.232;17.110;2023-08-24T02:24:10;6.07;;;3.63;;
15132;SDS011;7667;51.232;17.110;2023-08-24T02:26:37;6.67;;;3.93;;
15132;SDS011;7667;51.232;17.110;2023-08-24T02:29:05;4.43;;;3.80;;
15132;SDS011;7667;51.232;17.110;2023-08-24T02:31:33;7.30;;;4.87;;
15132;SDS011;7667;51.232;17.110;2023-08-24T02:34:00;8.17;;;6.60;;
15132;SDS011;7667;51.232;17.110;2023-08-24T02:36:29;8.87;;;6.37;;
15132;SDS011;7667;51.232;17.110;2023-08-24T02:38:59;8.47;;;5.30;;
15132;SDS011;7667;51.232;17.110;2023-08-24T02:41:27;4.97;;;4.20;;
15132;SDS011;7667;51.232;17.110;2023-08-24T02:43:55;11.60;;;4.70;;
15132;SDS011;7667;51.232;17.110;2023-08-24T02:46:22;7.50;;;4.50;;
15132;SDS011;7667;51.232;17.110;2023-08-24T02:48:50;5.97;;;4.37;;
15132;SDS011;7667;51.232;17.110;2023-08-24T02:51:20;4.97;;;4.27;;
15132;SDS011;7667;51.232;17.110;2023-08-24T02:53:49;10.33;;;5.70;;
15132;SDS011;7667;51.232;17.110;2023-08-24T02:56:17;5.70;;;4.70;;
15132;SDS011;7667;51.232;17.110;2023-08-24T02:58:44;6.73;;;4.53;;
15132;SDS011;7667;51.232;17.110;2023-08-24T03:01:12;7.10;;;5.07;;
15132;SDS011;7667;51.232;17.110;2023-08-24T03:03:40;4.43;;;3.97;;
15132;SDS011;7667;51.232;17.110;2023-08-24T03:06:07;5.00;;;4.03;;
15132;SDS011;7667;51.232;17.110;2023-08-24T03:08:35;5.70;;;4.43;;
15132;SDS011;7667;51.232;17.110;2023-08-24T03:11:03;8.27;;;4.33;;
15132;SDS011;7667;51.232;17.110;2023-08-24T03:13:31;5.80;;;4.83;;
15132;SDS011;7667;51.232;17.110;2023-08-24T03:16:03;5.93;;;4.57;;
15132;SDS011;7667;51.232;17.110;2023-08-24T03:18:32;6.13;;;4.93;;
15132;SDS011;7667;51.232;17.110;2023-08-24T03:21:00;7.17;;;5.60;;
15132;SDS011;7667;51.232;17.110;2023-08-24T03:23:28;6.10;;;5.07;;
15132;SDS011;7667;51.232;17.110;2023-08-24T03:25:55;6.33;;;4.70;;
15132;SDS011;7667;51.232;17.110;2023-08-24T03:28:24;5.73;;;4.83;;
15132;SDS011;7667;51.232;17.110;2023-08-24T03:30:52;5.67;;;5.00;;
15132;SDS011;7667;51.232;17.110;2023-08-24T03:33:22;6.67;;;5.10;;
15132;SDS011;7667;51.232;17.110;2023-08-24T03:35:50;5.80;;;4.33;;
15132;SDS011;7667;51.232;17.110;2023-08-24T03:38:18;14.43;;;8.00;;
15132;SDS011;7667;51.232;17.110;2023-08-24T03:40:45;12.20;;;7.67;;
15132;SDS011;7667;51.232;17.110;2023-08-24T03:43:13;13.20;;;7.90;;
15132;SDS011;7667;51.232;17.110;2023-08-24T03:45:41;9.97;;;6.47;;
15132;SDS011;7667;51.232;17.110;2023-08-24T03:48:10;8.57;;;6.20;;
15132;SDS011;7667;51.232;17.110;2023-08-24T03:50:38;7.37;;;5.70;;
15132;SDS011;7667;51.232;17.110;2023-08-24T03:53:06;7.93;;;5.47;;
15132;SDS011;7667;51.232;17.110;2023-08-24T03:55:33;7.87;;;5.63;;
15132;SDS011;7667;51.232;17.110;2023-08-24T03:58:01;8.97;;;5.50;;
15132;SDS011;7667;51.232;17.110;2023-08-24T04:00:29;8.27;;;5.17;;
15132;SDS011;7667;51.232;17.110;2023-08-24T04:02:57;7.10;;;5.10;;
15132;SDS011;7667;51.232;17.110;2023-08-24T04:05:25;7.53;;;5.40;;
15132;SDS011;7667;51.232;17.110;2023-08-24T04:07:53;5.73;;;5.13;;
15132;SDS011;7667;51.232;17.110;2023-08-24T04:10:20;5.07;;;4.57;;
15132;SDS011;7667;51.232;17.110;2023-08-24T04:12:48;6.17;;;4.83;;
15132;SDS011;7667;51.232;17.110;2023-08-24T04:15:15;7.90;;;5.10;;
15132;SDS011;7667;51.232;17.110;2023-08-24T04:17:43;8.30;;;6.07;;
15132;SDS011;7667;51.232;17.110;2023-08-24T04:20:11;6.63;;;5.00;;
15132;SDS011;7667;51.232;17.110;2023-08-24T04:22:39;7.67;;;5.30;;
15132;SDS011;7667;51.232;17.110;2023-08-24T04:25:06;10.57;;;5.53;;
15132;SDS011;7667;51.232;17.110;2023-08-24T04:27:35;9.60;;;5.70;;
15132;SDS011;7667;51.232;17.110;2023-08-24T04:30:04;8.00;;;5.30;;
15132;SDS011;7667;51.232;17.110;2023-08-24T04:32:32;7.03;;;5.47;;
15132;SDS011;7667;51.232;17.110;2023-08-24T04:35:00;8.10;;;5.80;;
15132;SDS011;7667;51.232;17.110;2023-08-24T04:37:27;7.23;;;5.50;;
15132;SDS011;7667;51.232;17.110;2023-08-24T04:39:55;6.63;;;5.57;;
15132;SDS011;7667;51.232;17.110;2023-08-24T04:42:23;6.27;;;5.27;;
15132;SDS011;7667;51.232;17.110;2023-08-24T04:44:51;6.00;;;4.73;;
15132;SDS011;7667;51.232;17.110;2023-08-24T04:47:19;8.73;;;5.07;;
15132;SDS011;7667;51.232;17.110;2023-08-24T04:49:46;5.60;;;4.87;;
15132;SDS011;7667;51.232;17.110;2023-08-24T04:52:14;9.30;;;5.33;;
15132;SDS011;7667;51.232;17.110;2023-08-24T04:54:41;7.63;;;5.80;;
15132;SDS011;7667;51.232;17.110;2023-08-24T04:57:09;7.30;;;5.80;;
15132;SDS011;7667;51.232;17.110;2023-08-24T04:59:36;6.53;;;5.93;;
15132;SDS011;7667;51.232;17.110;2023-08-24T05:02:04;7.13;;;6.23;;
15132;SDS011;7667;51.232;17.110;2023-08-24T05:04:31;6.93;;;6.30;;
15132;SDS011;7667;51.232;17.110;2023-08-24T05:06:59;10.13;;;6.40;;
15132;SDS011;7667;51.232;17.110;2023-08-24T05:09:26;7.17;;;6.47;;
15132;SDS011;7667;51.232;17.110;2023-08-24T05:11:54;8.60;;;6.40;;
15132;SDS011;7667;51.232;17.110;2023-08-24T05:14:22;7.10;;;6.40;;
15132;SDS011;7667;51.232;17.110;2023-08-24T05:16:49;7.80;;;6.57;;
15132;SDS011;7667;51.232;17.110;2023-08-24T05:19:17;7.33;;;6.63;;
15132;SDS011;7667;51.232;17.110;2023-08-24T05:21:44;12.33;;;7.20;;
15132;SDS011;7667;51.232;17.110;2023-08-24T05:24:12;9.43;;;7.10;;
15132;SDS011;7667;51.232;17.110;2023-08-24T05:26:39;9.03;;;7.10;;
15132;SDS011;7667;51.232;17.110;2023-08-24T05:29:07;7.83;;;7.07;;
15132;SDS011;7667;51.232;17.110;2023-08-24T05:31:34;10.87;;;7.43;;
15132;SDS011;7667;51.232;17.110;2023-08-24T05:34:02;8.10;;;6.67;;
15132;SDS011;7667;51.232;17.110;2023-08-24T05:36:29;9.17;;;7.33;;
15132;SDS011;7667;51.232;17.110;2023-08-24T05:38:57;7.43;;;6.73;;
15132;SDS011;7667;51.232;17.110;2023-08-24T05:41:32;7.77;;;6.90;;
15132;SDS011;7667;51.232;17.110;2023-08-24T05:44:00;8.33;;;7.13;;
15132;SDS011;7667;51.232;17.110;2023-08-24T05:46:28;7.40;;;6.70;;
15132;SDS011;7667;51.232;17.110;2023-08-24T05:48:57;8.20;;;7.00;;
15132;SDS011;7667;51.232;17.110;2023-08-24T05:51:29;8.93;;;6.50;;
15132;SDS011;7667;51.232;17.110;2023-08-24T05:53:56;9.23;;;6.30;;
15132;SDS011;7667;51.232;17.110;2023-08-24T05:56:25;7.03;;;6.07;;
15132;SDS011;7667;51.232;17.110;2023-08-24T05:58:53;8.43;;;6.00;;
15132;SDS011;7667;51.232;17.110;2023-08-24T06:01:21;7.57;;;5.83;;
15132;SDS011;7667;51.232;17.110;2023-08-24T06:03:49;8.90;;;5.60;;
15132;SDS011;7667;51.232;17.110;2023-08-24T06:06:17;9.87;;;6.40;;
15132;SDS011;7667;51.232;17.110;2023-08-24T06:08:45;6.40;;;5.30;;
15132;SDS011;7667;51.232;17.110;2023-08-24T06:11:12;8.17;;;5.60;;
15132;SDS011;7667;51.232;17.110;2023-08-24T06:13:40;7.07;;;5.37;;
15132;SDS011;7667;51.232;17.110;2023-08-24T06:16:07;6.43;;;5.10;;
15132;SDS011;7667;51.232;17.110;2023-08-24T06:18:35;6.63;;;4.83;;
15132;SDS011;7667;51.232;17.110;2023-08-24T06:21:03;7.93;;;5.10;;
15132;SDS011;7667;51.232;17.110;2023-08-24T06:23:30;6.80;;;4.80;;
15132;SDS011;7667;51.232;17.110;2023-08-24T06:25:58;5.10;;;4.60;;
15132;SDS011;7667;51.232;17.110;2023-08-24T06:28:25;6.70;;;4.57;;
15132;SDS011;7667;51.232;17.110;2023-08-24T06:30:54;5.00;;;3.53;;
15132;SDS011;7667;51.232;17.110;2023-08-24T06:33:26;5.90;;;3.87;;
15132;SDS011;7667;51.232;17.110;2023-08-24T06:35:57;5.80;;;3.63;;
15132;SDS011;7667;51.232;17.110;2023-08-24T06:38:25;4.83;;;4.07;;
15132;SDS011;7667;51.232;17.110;2023-08-24T06:40:53;6.43;;;3.63;;
15132;SDS011;7667;51.232;17.110;2023-08-24T06:43:20;6.27;;;4.30;;
15132;SDS011;7667;51.232;17.110;2023-08-24T06:45:48;6.30;;;3.90;;
15132;SDS011;7667;51.232;17.110;2023-08-24T06:48:16;7.13;;;4.27;;
15132;SDS011;7667;51.232;17.110;2023-08-24T06:50:47;5.03;;;3.87;;
15132;SDS011;7667;51.232;17.110;2023-08-24T06:53:15;4.87;;;3.80;;
15132;SDS011;7667;51.232;17.110;2023-08-24T06:55:42;4.20;;;3.70;;
15132;SDS011;7667;51.232;17.110;2023-08-24T06:58:10;5.07;;;3.77;;
15132;SDS011;7667;51.232;17.110;2023-08-24T07:00:37;4.60;;;3.90;;
15132;SDS011;7667;51.232;17.110;2023-08-24T07:03:06;4.93;;;4.00;;
15132;SDS011;7667;51.232;17.110;2023-08-24T07:05:34;5.97;;;4.00;;
15132;SDS011;7667;51.232;17.110;2023-08-24T07:08:04;7.20;;;4.10;;
15132;SDS011;7667;51.232;17.110;2023-08-24T07:10:32;4.80;;;4.10;;
15132;SDS011;7667;51.232;17.110;2023-08-24T07:12:59;6.60;;;4.10;;
15132;SDS011;7667;51.232;17.110;2023-08-24T07:15:27;6.05;;;3.67;;
15132;SDS011;7667;51.232;17.110;2023-08-24T07:17:55;4.68;;;3.42;;
15132;SDS011;7667;51.232;17.110;2023-08-24T07:20:22;3.92;;;3.40;;
15132;SDS011;7667;51.232;17.110;2023-08-24T07:22:50;5.63;;;3.83;;
15132;SDS011;7667;51.232;17.110;2023-08-24T07:25:18;4.97;;;3.78;;
15132;SDS011;7667;51.232;17.110;2023-08-24T07:27:45;5.30;;;3.70;;
15132;SDS011;7667;51.232;17.110;2023-08-24T07:30:13;6.40;;;3.10;;
15132;SDS011;7667;51.232;17.110;2023-08-24T07:32:57;4.63;;;3.00;;
15132;SDS011;7667;51.232;17.110;2023-08-24T07:35:25;5.22;;;2.95;;
15132;SDS011;7667;51.232;17.110;2023-08-24T07:37:53;3.45;;;2.80;;
15132;SDS011;7667;51.232;17.110;2023-08-24T07:40:21;4.60;;;3.00;;
15132;SDS011;7667;51.232;17.110;2023-08-24T07:42:49;5.15;;;3.40;;
15132;SDS011;7667;51.232;17.110;2023-08-24T07:45:21;7.40;;;3.10;;
15132;SDS011;7667;51.232;17.110;2023-08-24T07:47:53;4.10;;;2.92;;
15132;SDS011;7667;51.232;17.110;2023-08-24T07:50:21;8.70;;;3.60;;
15132;SDS011;7667;51.232;17.110;2023-08-24T07:52:49;6.03;;;3.25;;
15132;SDS011;7667;51.232;17.110;2023-08-24T07:55:20;4.60;;;3.20;;
15132;SDS011;7667;51.232;17.110;2023-08-24T07:57:47;5.32;;;3.00;;
15132;SDS011;7667;51.232;17.110;2023-08-24T08:00:16;3.53;;;2.60;;
15132;SDS011;7667;51.232;17.110;2023-08-24T08:02:43;5.00;;;2.25;;
15132;SDS011;7667;51.232;17.110;2023-08-24T08:05:11;5.22;;;2.50;;
15132;SDS011;7667;51.232;17.110;2023-08-24T08:07:39;3.45;;;2.60;;
15132;SDS011;7667;51.232;17.110;2023-08-24T08:10:07;3.05;;;2.70;;
15132;SDS011;7667;51.232;17.110;2023-08-24T08:12:35;5.38;;;2.13;;
15132;SDS011;7667;51.232;17.110;2023-08-24T08:15:02;4.45;;;2.47;;
15132;SDS011;7667;51.232;17.110;2023-08-24T08:17:31;4.47;;;2.28;;
15132;SDS011;7667;51.232;17.110;2023-08-24T08:20:00;5.32;;;2.40;;
15132;SDS011;7667;51.232;17.110;2023-08-24T08:22:29;2.35;;;1.80;;
15132;SDS011;7667;51.232;17.110;2023-08-24T08:24:56;4.72;;;2.30;;
15132;SDS011;7667;51.232;17.110;2023-08-24T08:27:24;3.95;;;2.30;;
15132;SDS011;7667;51.232;17.110;2023-08-24T08:29:52;3.60;;;1.95;;
15132;SDS011;7667;51.232;17.110;2023-08-24T08:32:20;3.10;;;1.88;;
15132;SDS011;7667;51.232;17.110;2023-08-24T08:34:47;2.42;;;2.08;;
15132;SDS011;7667;51.232;17.110;2023-08-24T08:37:15;3.92;;;2.25;;
15132;SDS011;7667;51.232;17.110;2023-08-24T08:39:42;3.05;;;1.95;;
15132;SDS011;7667;51.232;17.110;2023-08-24T08:42:11;4.28;;;1.63;;
15132;SDS011;7667;51.232;17.110;2023-08-24T08:44:41;2.33;;;1.73;;
15132;SDS011;7667;51.232;17.110;2023-08-24T08:47:11;4.18;;;1.98;;
15132;SDS011;7667;51.232;17.110;2023-08-24T08:49:41;1.95;;;1.70;;
15132;SDS011;7667;51.232;17.110;2023-08-24T08:52:10;2.38;;;1.80;;
15132;SDS011;7667;51.232;17.110;2023-08-24T08:54:39;3.58;;;2.00;;
15132;SDS011;7667;51.232;17.110;2023-08-24T08:57:07;3.92;;;1.80;;
15132;SDS011;7667;51.232;17.110;2023-08-24T08:59:35;4.53;;;1.90;;
15132;SDS011;7667;51.232;17.110;2023-08-24T09:02:03;4.20;;;1.83;;
15132;SDS011;7667;51.232;17.110;2023-08-24T09:04:32;3.17;;;1.73;;
15132;SDS011;7667;51.232;17.110;2023-08-24T09:07:00;3.20;;;1.80;;
15132;SDS011;7667;51.232;17.110;2023-08-24T09:09:31;2.78;;;1.90;;
15132;SDS011;7667;51.232;17.110;2023-08-24T09:12:00;4.18;;;1.90;;
15132;SDS011;7667;51.232;17.110;2023-08-24T09:14:27;2.90;;;1.67;;
15132;SDS011;7667;51.232;17.110;2023-08-24T09:16:55;5.25;;;2.13;;
15132;SDS011;7667;51.232;17.110;2023-08-24T09:19:29;4.57;;;1.80;;
15132;SDS011;7667;51.232;17.110;2023-08-24T09:22:00;3.63;;;1.90;;
15132;SDS011;7667;51.232;17.110;2023-08-24T09:24:31;3.33;;;1.75;;
15132;SDS011;7667;51.232;17.110;2023-08-24T09:27:00;3.63;;;2.58;;
15132;SDS011;7667;51.232;17.110;2023-08-24T09:29:48;3.28;;;1.90;;
15132;SDS011;7667;51.232;17.110;2023-08-24T09:32:21;3.08;;;2.47;;
15132;SDS011;7667;51.232;17.110;2023-08-24T09:34:50;3.05;;;1.95;;
15132;SDS011;7667;51.232;17.110;2023-08-24T09:37:18;3.72;;;1.98;;
15132;SDS011;7667;51.232;17.110;2023-08-24T09:39:46;4.50;;;2.03;;
15132;SDS011;7667;51.232;17.110;2023-08-24T09:42:14;2.13;;;1.90;;
15132;SDS011;7667;51.232;17.110;2023-08-24T09:44:54;2.03;;;1.70;;
15132;SDS011;7667;51.232;17.110;2023-08-24T09:47:22;2.30;;;2.00;;
15132;SDS011;7667;51.232;17.110;2023-08-24T09:49:49;3.45;;;2.20;;
15132;SDS011;7667;51.232;17.110;2023-08-24T09:52:18;2.13;;;1.92;;
15132;SDS011;7667;51.232;17.110;2023-08-24T09:54:46;4.07;;;2.20;;
15132;SDS011;7667;51.232;17.110;2023-08-24T09:57:15;2.38;;;2.17;;
15132;SDS011;7667;51.232;17.110;2023-08-24T09:59:43;2.42;;;2.20;;
15132;SDS011;7667;51.232;17.110;2023-08-24T10:02:16;3.42;;;2.03;;
15132;SDS011;7667;51.232;17.110;2023-08-24T10:04:50;2.20;;;1.70;;
15132;SDS011;7667;51.232;17.110;2023-08-24T10:07:21;2.63;;;2.33;;
15132;SDS011;7667;51.232;17.110;2023-08-24T10:09:58;3.85;;;2.30;;
15132;SDS011;7667;51.232;17.110;2023-08-24T10:12:39;4.65;;;2.08;;
15132;SDS011;7667;51.232;17.110;2023-08-24T10:15:15;2.83;;;2.00;;
15132;SDS011;7667;51.232;17.110;2023-08-24T10:17:45;3.20;;;2.05;;
15132;SDS011;7667;51.232;17.110;2023-08-24T10:20:14;5.57;;;3.38;;
15132;SDS011;7667;51.232;17.110;2023-08-24T10:22:45;5.60;;;2.20;;
15132;SDS011;7667;51.232;17.110;2023-08-24T10:25:15;3.78;;;2.20;;
15132;SDS011;7667;51.232;17.110;2023-08-24T10:27:45;1.95;;;1.75;;
15132;SDS011;7667;51.232;17.110;2023-08-24T10:30:17;2.83;;;1.80;;
15132;SDS011;7667;51.232;17.110;2023-08-24T10:32:46;2.20;;;1.95;;
15132;SDS011;7667;51.232;17.110;2023-08-24T10:35:16;2.65;;;2.20;;
15132;SDS011;7667;51.232;17.110;2023-08-24T10:37:44;3.88;;;1.92;;
15132;SDS011;7667;51.232;17.110;2023-08-24T10:40:13;2.50;;;2.30;;
15132;SDS011;7667;51.232;17.110;2023-08-24T10:42:44;2.80;;;1.80;;
15132;SDS011;7667;51.232;17.110;2023-08-24T10:45:13;3.72;;;1.95;;
15132;SDS011;7667;51.232;17.110;2023-08-24T10:47:45;4.13;;;2.45;;
15132;SDS011;7667;51.232;17.110;2023-08-24T10:50:13;2.38;;;1.73;;
15132;SDS011;7667;51.232;17.110;2023-08-24T10:52:44;1.92;;;1.75;;
15132;SDS011;7667;51.232;17.110;2023-08-24T10:55:23;2.45;;;2.00;;
15132;SDS011;7667;51.232;17.110;2023-08-24T10:57:56;3.80;;;2.05;;
15132;SDS011;7667;51.232;17.110;2023-08-24T11:00:28;3.50;;;2.10;;
15132;SDS011;7667;51.232;17.110;2023-08-24T11:02:57;2.70;;;2.15;;
15132;SDS011;7667;51.232;17.110;2023-08-24T11:05:28;2.33;;;1.90;;
15132;SDS011;7667;51.232;17.110;2023-08-24T11:08:03;3.45;;;2.38;;
15132;SDS011;7667;51.232;17.110;2023-08-24T11:13:15;2.42;;;1.73;;
15132;SDS011;7667;51.232;17.110;2023-08-24T11:15:47;3.53;;;2.05;;
15132;SDS011;7667;51.232;17.110;2023-08-24T11:18:22;3.25;;;1.90;;
15132;SDS011;7667;51.232;17.110;2023-08-24T11:21:01;2.17;;;1.80;;
15132;SDS011;7667;51.232;17.110;2023-08-24T11:23:30;4.57;;;2.00;;
15132;SDS011;7667;51.232;17.110;2023-08-24T11:25:58;4.35;;;2.00;;
15132;SDS011;7667;51.232;17.110;2023-08-24T11:28:28;3.00;;;2.30;;
15132;SDS011;7667;51.232;17.110;2023-08-24T11:30:57;2.88;;;2.08;;
15132;SDS011;7667;51.232;17.110;2023-08-24T11:33:33;2.95;;;2.47;;
15132;SDS011;7667;51.232;17.110;2023-08-24T11:36:05;3.30;;;2.30;;
15132;SDS011;7667;51.232;17.110;2023-08-24T11:38:40;2.50;;;2.00;;
15132;SDS011;7667;51.232;17.110;2023-08-24T11:43:48;4.00;;;1.98;;
15132;SDS011;7667;51.232;17.110;2023-08-24T11:46:23;2.67;;;2.00;;
15132;SDS011;7667;51.232;17.110;2023-08-24T11:48:50;4.80;;;1.90;;
15132;SDS011;7667;51.232;17.110;2023-08-24T11:51:18;3.13;;;1.95;;
15132;SDS011;7667;51.232;17.110;2023-08-24T11:53:59;4.15;;;2.10;;
15132;SDS011;7667;51.232;17.110;2023-08-24T11:56:26;3.97;;;2.28;;
15132;SDS011;7667;51.232;17.110;2023-08-24T11:58:55;3.13;;;1.95;;
15132;SDS011;7667;51.232;17.110;2023-08-24T12:01:22;2.25;;;1.90;;
15132;SDS011;7667;51.232;17.110;2023-08-24T12:03:51;1.90;;;1.70;;
15132;SDS011;7667;51.232;17.110;2023-08-24T12:06:19;4.47;;;1.90;;
15132;SDS011;7667;51.232;17.110;2023-08-24T12:08:47;4.45;;;2.05;;
15132;SDS011;7667;51.232;17.110;2023-08-24T12:11:19;2.53;;;1.98;;
15132;SDS011;7667;51.232;17.110;2023-08-24T12:13:52;2.08;;;1.90;;
15132;SDS011;7667;51.232;17.110;2023-08-24T12:16:22;2.88;;;1.90;;
15132;SDS011;7667;51.232;17.110;2023-08-24T12:18:56;2.33;;;1.98;;
15132;SDS011;7667;51.232;17.110;2023-08-24T12:21:32;2.42;;;2.22;;
15132;SDS011;7667;51.232;17.110;2023-08-24T12:24:00;4.68;;;1.85;;
15132;SDS011;7667;51.232;17.110;2023-08-24T12:26:33;2.28;;;1.95;;
15132;SDS011;7667;51.232;17.110;2023-08-24T12:31:33;2.80;;;2.30;;
15132;SDS011;7667;51.232;17.110;2023-08-24T12:34:03;3.90;;;1.95;;
15132;SDS011;7667;51.232;17.110;2023-08-24T12:36:33;4.18;;;2.05;;
15132;SDS011;7667;51.232;17.110;2023-08-24T12:39:03;2.22;;;2.03;;
15132;SDS011;7667;51.232;17.110;2023-08-24T12:41:32;3.45;;;2.17;;
15132;SDS011;7667;51.232;17.110;2023-08-24T12:44:00;2.70;;;1.95;;
15132;SDS011;7667;51.232;17.110;2023-08-24T12:46:32;2.30;;;2.10;;
15132;SDS011;7667;51.232;17.110;2023-08-24T12:49:04;3.00;;;2.15;;
15132;SDS011;7667;51.232;17.110;2023-08-24T12:51:31;3.13;;;2.05;;
15132;SDS011;7667;51.232;17.110;2023-08-24T12:53:59;1.90;;;1.70;;
15132;SDS011;7667;51.232;17.110;2023-08-24T12:56:27;4.00;;;1.85;;
15132;SDS011;7667;51.232;17.110;2023-08-24T12:58:54;3.78;;;1.88;;
15132;SDS011;7667;51.232;17.110;2023-08-24T13:01:22;3.78;;;2.00;;
15132;SDS011;7667;51.232;17.110;2023-08-24T13:03:50;1.85;;;1.65;;
15132;SDS011;7667;51.232;17.110;2023-08-24T13:06:17;2.70;;;1.88;;
15132;SDS011;7667;51.232;17.110;2023-08-24T13:08:48;3.28;;;2.15;;
15132;SDS011;7667;51.232;17.110;2023-08-24T13:11:15;3.05;;;1.90;;
15132;SDS011;7667;51.232;17.110;2023-08-24T13:13:43;2.60;;;2.13;;
15132;SDS011;7667;51.232;17.110;2023-08-24T13:16:12;3.60;;;1.90;;
15132;SDS011;7667;51.232;17.110;2023-08-24T13:18:40;2.80;;;2.00;;
15132;SDS011;7667;51.232;17.110;2023-08-24T13:21:09;2.95;;;1.73;;
15132;SDS011;7667;51.232;17.110;2023-08-24T13:23:36;2.05;;;1.85;;
15132;SDS011;7667;51.232;17.110;2023-08-24T13:26:04;2.78;;;1.70;;
15132;SDS011;7667;51.232;17.110;2023-08-24T13:28:32;2.53;;;1.90;;
15132;SDS011;7667;51.232;17.110;2023-08-24T13:30:59;3.58;;;2.10;;
15132;SDS011;7667;51.232;17.110;2023-08-24T13:33:27;5.10;;;2.10;;
15132;SDS011;7667;51.232;17.110;2023-08-24T13:35:54;2.92;;;2.03;;
15132;SDS011;7667;51.232;17.110;2023-08-24T13:38:22;4.88;;;2.10;;
15132;SDS011;7667;51.232;17.110;2023-08-24T13:40:49;3.53;;;2.03;;
15132;SDS011;7667;51.232;17.110;2023-08-24T13:43:17;3.22;;;2.00;;
15132;SDS011;7667;51.232;17.110;2023-08-24T13:45:46;3.15;;;2.00;;
15132;SDS011;7667;51.232;17.110;2023-08-24T13:48:14;4.25;;;2.05;;
15132;SDS011;7667;51.232;17.110;2023-08-24T13:50:48;2.30;;;1.90;;
15132;SDS011;7667;51.232;17.110;2023-08-24T13:53:19;2.30;;;1.75;;
15132;SDS011;7667;51.232;17.110;2023-08-24T13:55:47;3.20;;;1.95;;
15132;SDS011;7667;51.232;17.110;2023-08-24T13:58:14;3.53;;;1.90;;
15132;SDS011;7667;51.232;17.110;2023-08-24T14:00:42;3.53;;;1.92;;
15132;SDS011;7667;51.232;17.110;2023-08-24T14:03:11;3.08;;;2.05;;
15132;SDS011;7667;51.232;17.110;2023-08-24T14:05:39;2.70;;;1.65;;
15132;SDS011;7667;51.232;17.110;2023-08-24T14:08:07;1.60;;;1.50;;
15132;SDS011;7667;51.232;17.110;2023-08-24T14:10:34;7.35;;;2.30;;
15132;SDS011;7667;51.232;17.110;2023-08-24T14:13:02;2.15;;;1.73;;
15132;SDS011;7667;51.232;17.110;2023-08-24T14:15:30;2.13;;;1.90;;
15132;SDS011;7667;51.232;17.110;2023-08-24T14:17:57;1.90;;;1.70;;
15132;SDS011;7667;51.232;17.110;2023-08-24T14:20:25;2.95;;;1.80;;
15132;SDS011;7667;51.232;17.110;2023-08-24T14:22:54;3.42;;;1.70;;
15132;SDS011;7667;51.232;17.110;2023-08-24T14:25:22;2.75;;;1.95;;
15132;SDS011;7667;51.232;17.110;2023-08-24T14:27:49;3.78;;;1.85;;
15132;SDS011;7667;51.232;17.110;2023-08-24T14:30:30;2.78;;;1.90;;
15132;SDS011;7667;51.232;17.110;2023-08-24T14:32:58;3.35;;;1.88;;
15132;SDS011;7667;51.232;17.110;2023-08-24T14:35:25;5.65;;;1.90;;
15132;SDS011;7667;51.232;17.110;2023-08-24T14:37:55;2.83;;;1.90;;
15132;SDS011;7667;51.232;17.110;2023-08-24T14:40:23;2.28;;;1.80;;
15132;SDS011;7667;51.232;17.110;2023-08-24T14:42:50;2.47;;;1.92;;
15132;SDS011;7667;51.232;17.110;2023-08-24T14:45:18;1.90;;;1.70;;
15132;SDS011;7667;51.232;17.110;2023-08-24T14:47:45;2.25;;;1.60;;
15132;SDS011;7667;51.232;17.110;2023-08-24T14:50:13;2.95;;;1.95;;
15132;SDS011;7667;51.232;17.110;2023-08-24T14:52:41;3.60;;;1.80;;
15132;SDS011;7667;51.232;17.110;2023-08-24T14:55:09;3.45;;;1.90;;
15132;SDS011;7667;51.232;17.110;2023-08-24T14:57:37;1.85;;;1.75;;
15132;SDS011;7667;51.232;17.110;2023-08-24T15:00:05;2.30;;;1.65;;
15132;SDS011;7667;51.232;17.110;2023-08-24T15:02:36;5.60;;;1.85;;
15132;SDS011;7667;51.232;17.110;2023-08-24T15:05:04;2.55;;;1.98;;
15132;SDS011;7667;51.232;17.110;2023-08-24T15:07:32;3.33;;;1.80;;
15132;SDS011;7667;51.232;17.110;2023-08-24T15:10:00;1.67;;;1.58;;
15132;SDS011;7667;51.232;17.110;2023-08-24T15:12:29;4.95;;;1.95;;
15132;SDS011;7667;51.232;17.110;2023-08-24T15:14:58;2.35;;;1.90;;